createdAt,value
2019-05-13T00:00:03.844Z,0.00
2019-05-13T00:01:07.147Z,0.00
2019-05-13T00:02:04.543Z,0.00
2019-05-13T00:03:03.750Z,0.00
2019-05-13T00:04:03.694Z,0.00
2019-05-13T00:05:24.322Z,0.00
2019-05-13T00:06:04.138Z,0.00
2019-05-13T00:07:04.823Z,0.00
2019-05-13T00:08:03.717Z,0.00
2019-05-13T00:09:03.566Z,0.00
2019-05-13T00:10:04.044Z,0.00
2019-05-13T00:11:24.172Z,0.00
2019-05-13T00:12:04.665Z,0.00
2019-05-13T00:13:04.449Z,0.00
2019-05-13T00:14:04.427Z,0.00
2019-05-13T00:15:03.709Z,0.00
2019-05-13T00:16:03.726Z,0.00
2019-05-13T00:17:24.031Z,0.00
2019-05-13T00:18:04.004Z,0.00
2019-05-13T00:19:04.196Z,0.00
2019-05-13T00:20:03.947Z,0.00
2019-05-13T00:21:03.691Z,0.00
2019-05-13T00:22:03.810Z,0.00
2019-05-13T00:23:23.888Z,0.00
2019-05-13T00:24:04.123Z,0.00
2019-05-13T00:25:04.007Z,0.00
2019-05-13T00:26:03.851Z,0.00
2019-05-13T00:27:03.876Z,0.00
2019-05-13T00:28:04.032Z,0.00
2019-05-13T00:29:23.754Z,0.00
2019-05-13T00:30:04.295Z,0.00
2019-05-13T00:31:03.468Z,0.00
2019-05-13T00:32:04.713Z,0.00
2019-05-13T00:33:03.874Z,0.00
2019-05-13T00:34:03.710Z,0.00
2019-05-13T00:35:23.607Z,0.00
2019-05-13T00:36:04.066Z,0.00
2019-05-13T00:37:08.856Z,0.00
2019-05-13T00:38:03.887Z,0.00
2019-05-13T00:39:03.944Z,0.00
2019-05-13T00:40:03.973Z,0.00
2019-05-13T00:41:24.477Z,0.00
2019-05-13T00:42:04.027Z,0.00
2019-05-13T00:43:03.820Z,0.00
2019-05-13T00:44:03.817Z,0.00
2019-05-13T00:45:04.001Z,0.00
2019-05-13T00:46:03.869Z,0.00
2019-05-13T00:47:23.635Z,0.00
2019-05-13T00:48:04.664Z,0.00
2019-05-13T00:49:04.589Z,0.00
2019-05-13T00:50:03.694Z,0.00
2019-05-13T00:51:03.714Z,0.00
2019-05-13T00:52:03.893Z,0.00
2019-05-13T00:53:23.774Z,0.00
2019-05-13T00:54:04.141Z,0.00
2019-05-13T00:55:04.177Z,0.00
2019-05-13T00:56:04.028Z,0.00
2019-05-13T00:57:04.054Z,0.00
2019-05-13T00:58:04.098Z,0.00
2019-05-13T00:59:24.219Z,0.00
2019-05-13T01:00:03.558Z,0.00
2019-05-13T01:01:03.631Z,0.00
2019-05-13T01:02:03.596Z,0.00
2019-05-13T01:03:04.109Z,0.00
2019-05-13T01:04:03.846Z,0.00
2019-05-13T01:05:23.435Z,0.00
2019-05-13T01:06:04.045Z,0.00
2019-05-13T01:07:04.135Z,0.00
2019-05-13T01:08:03.893Z,0.00
2019-05-13T01:09:04.034Z,0.00
2019-05-13T01:10:04.024Z,0.00
2019-05-13T01:11:23.673Z,0.00
2019-05-13T01:12:04.096Z,0.00
2019-05-13T01:13:04.301Z,0.00
2019-05-13T01:14:04.099Z,0.00
2019-05-13T01:15:03.933Z,0.00
2019-05-13T01:16:03.520Z,0.00
2019-05-13T01:17:23.577Z,0.00
2019-05-13T01:18:03.690Z,0.00
2019-05-13T01:19:04.028Z,0.00
2019-05-13T01:20:03.941Z,0.00
2019-05-13T01:21:01.485Z,0.00
2019-05-13T01:22:03.403Z,0.00
2019-05-13T01:23:24.016Z,0.00
2019-05-13T01:24:03.768Z,0.00
2019-05-13T01:25:03.743Z,0.00
2019-05-13T01:26:03.701Z,0.00
2019-05-13T01:27:03.568Z,0.00
2019-05-13T01:28:01.329Z,0.00
2019-05-13T01:29:23.797Z,0.00
2019-05-13T01:30:01.263Z,0.00
2019-05-13T01:31:01.263Z,0.00
2019-05-13T01:32:01.211Z,0.00
2019-05-13T01:33:01.192Z,0.00
2019-05-13T01:34:01.162Z,0.00
2019-05-13T01:35:23.592Z,0.00
2019-05-13T01:36:01.110Z,0.00
2019-05-13T01:37:01.096Z,0.00
2019-05-13T01:38:01.073Z,0.00
2019-05-13T01:39:01.044Z,0.00
2019-05-13T01:40:01.020Z,0.00
2019-05-13T01:41:23.914Z,0.00
2019-05-13T01:42:03.478Z,0.00
2019-05-13T01:43:03.346Z,0.00
2019-05-13T01:44:03.758Z,0.00
2019-05-13T01:45:00.898Z,0.00
2019-05-13T01:46:00.875Z,0.00
2019-05-13T01:47:24.072Z,0.00
2019-05-13T01:48:00.824Z,0.00
2019-05-13T01:49:00.802Z,0.00
2019-05-13T01:50:00.778Z,0.00
2019-05-13T01:51:00.753Z,0.00
2019-05-13T01:52:00.724Z,0.00
2019-05-13T01:53:24.156Z,0.00
2019-05-13T01:54:00.680Z,0.00
2019-05-13T01:55:00.667Z,0.00
2019-05-13T01:56:00.628Z,0.00
2019-05-13T01:57:00.602Z,0.00
2019-05-13T01:58:00.584Z,0.00
2019-05-13T01:59:23.800Z,0.00
2019-05-13T02:00:00.532Z,0.00
2019-05-13T02:01:00.521Z,0.00
2019-05-13T02:02:00.487Z,0.00
2019-05-13T02:03:00.455Z,0.00
2019-05-13T02:04:00.430Z,0.00
2019-05-13T02:05:21.403Z,0.00
2019-05-13T02:06:00.387Z,0.00
2019-05-13T02:07:00.361Z,0.00
2019-05-13T02:08:00.755Z,0.00
2019-05-13T02:09:00.312Z,0.00
2019-05-13T02:10:00.295Z,0.00
2019-05-13T02:11:23.763Z,0.00
2019-05-13T02:12:00.262Z,0.00
2019-05-13T02:13:00.217Z,0.00
2019-05-13T02:14:00.184Z,0.00
2019-05-13T02:15:00.171Z,0.00
2019-05-13T02:16:00.142Z,0.00
2019-05-13T02:17:23.280Z,0.00
2019-05-13T02:18:00.088Z,0.00
2019-05-13T02:19:00.072Z,0.00
2019-05-13T02:20:00.059Z,0.00
2019-05-13T02:21:00.027Z,0.00
2019-05-13T02:21:59.992Z,0.00
2019-05-13T02:23:20.981Z,0.00
2019-05-13T02:23:59.937Z,0.00
2019-05-13T02:24:59.944Z,0.00
2019-05-13T02:25:59.903Z,0.00
2019-05-13T02:26:59.870Z,0.00
2019-05-13T02:27:59.848Z,0.00
2019-05-13T02:29:20.813Z,0.00
2019-05-13T02:29:59.793Z,0.00
2019-05-13T02:30:59.795Z,0.00
2019-05-13T02:32:02.807Z,0.00
2019-05-13T02:33:02.804Z,0.00
2019-05-13T02:34:02.540Z,0.00
2019-05-13T02:35:23.133Z,0.00
2019-05-13T02:36:02.629Z,0.00
2019-05-13T02:37:02.819Z,0.00
2019-05-13T02:38:17.437Z,0.00
2019-05-13T02:39:02.253Z,0.00
2019-05-13T02:40:03.208Z,0.00
2019-05-13T02:41:22.813Z,0.00
2019-05-13T02:42:03.007Z,0.00
2019-05-13T02:43:02.701Z,0.00
2019-05-13T02:44:03.193Z,0.00
2019-05-13T02:45:03.090Z,0.00
2019-05-13T02:45:59.411Z,0.00
2019-05-13T02:47:22.611Z,0.00
2019-05-13T02:48:02.393Z,0.00
2019-05-13T02:48:59.344Z,0.00
2019-05-13T02:50:01.919Z,0.00
2019-05-13T02:50:59.280Z,0.00
2019-05-13T02:52:02.474Z,0.00
2019-05-13T02:53:23.238Z,0.00
2019-05-13T02:53:59.207Z,0.00
2019-05-13T02:54:59.201Z,0.00
2019-05-13T02:55:59.163Z,0.00
2019-05-13T02:56:59.135Z,0.00
2019-05-13T02:57:59.120Z,0.00
2019-05-13T02:59:22.561Z,0.00
2019-05-13T02:59:59.061Z,0.00
2019-05-13T03:00:59.040Z,0.00
2019-05-13T03:01:59.009Z,0.00
2019-05-13T03:02:58.997Z,0.00
2019-05-13T03:03:58.956Z,0.00
2019-05-13T03:05:22.008Z,0.00
2019-05-13T03:05:58.916Z,0.00
2019-05-13T03:06:58.885Z,0.00
2019-05-13T03:07:58.882Z,0.00
2019-05-13T03:08:58.884Z,4.00
2019-05-13T03:09:58.813Z,4.00
2019-05-13T03:11:22.474Z,4.00
2019-05-13T03:11:58.765Z,4.00
2019-05-13T03:12:58.738Z,4.00
2019-05-13T03:13:58.712Z,4.00
2019-05-13T03:15:02.423Z,4.00
2019-05-13T03:15:58.700Z,8.00
2019-05-13T03:17:22.434Z,4.00
2019-05-13T03:17:58.617Z,8.00
2019-05-13T03:18:58.630Z,12.00
2019-05-13T03:19:58.591Z,12.00
2019-05-13T03:20:58.543Z,12.00
2019-05-13T03:21:58.519Z,16.00
2019-05-13T03:23:22.485Z,16.00
2019-05-13T03:23:58.490Z,24.00
2019-05-13T03:24:58.482Z,24.00
2019-05-13T03:25:58.416Z,28.00
2019-05-13T03:26:58.393Z,36.00
2019-05-13T03:27:58.370Z,40.00
2019-05-13T03:29:22.004Z,44.00
2019-05-13T03:29:58.318Z,48.00
2019-05-13T03:30:58.295Z,56.00
2019-05-13T03:31:58.283Z,64.00
2019-05-13T03:33:02.184Z,72.00
2019-05-13T03:33:58.233Z,84.00
2019-05-13T03:35:25.847Z,92.00
2019-05-13T03:35:58.206Z,100.00
2019-05-13T03:36:58.347Z,112.00
2019-05-13T03:37:58.135Z,128.00
2019-05-13T03:39:05.836Z,140.00
2019-05-13T03:39:58.074Z,156.00
2019-05-13T03:41:22.523Z,168.00
2019-05-13T03:41:58.021Z,184.00
2019-05-13T03:42:58.003Z,200.00
2019-05-13T03:43:57.967Z,220.00
2019-05-13T03:44:57.961Z,240.00
2019-05-13T03:45:57.923Z,264.00
2019-05-13T03:47:18.904Z,284.00
2019-05-13T03:47:57.881Z,304.00
2019-05-13T03:48:57.856Z,324.00
2019-05-13T03:49:57.827Z,352.00
2019-05-13T03:50:57.801Z,376.00
2019-05-13T03:51:57.793Z,400.00
2019-05-13T03:53:18.771Z,428.00
2019-05-13T03:53:57.730Z,452.00
2019-05-13T03:54:57.703Z,480.00
2019-05-13T03:55:57.678Z,512.00
2019-05-13T03:56:57.666Z,540.00
2019-05-13T03:57:57.643Z,568.00
2019-05-13T03:59:18.616Z,596.00
2019-05-13T03:59:57.582Z,628.00
2019-05-13T04:00:57.557Z,656.00
2019-05-13T04:01:57.534Z,688.00
2019-05-13T04:02:57.502Z,712.00
2019-05-13T04:03:57.483Z,744.00
2019-05-13T04:05:18.468Z,776.00
2019-05-13T04:05:57.437Z,808.00
2019-05-13T04:06:57.421Z,836.00
2019-05-13T04:07:57.394Z,868.00
2019-05-13T04:09:17.245Z,896.00
2019-05-13T04:09:57.343Z,928.00
2019-05-13T04:11:18.322Z,956.00
2019-05-13T04:11:57.285Z,988.00
2019-05-13T04:12:57.294Z,1016.00
2019-05-13T04:13:57.247Z,1048.00
2019-05-13T04:14:57.206Z,1076.00
2019-05-13T04:15:57.183Z,1104.00
2019-05-13T04:17:18.170Z,1132.00
2019-05-13T04:17:57.139Z,1164.00
2019-05-13T04:18:57.113Z,1192.00
2019-05-13T04:19:57.097Z,1216.00
2019-05-13T04:20:57.070Z,1244.00
2019-05-13T04:21:57.052Z,1276.00
2019-05-13T04:23:18.052Z,1300.00
2019-05-13T04:23:56.995Z,1324.00
2019-05-13T04:24:56.967Z,1352.00
2019-05-13T04:25:56.935Z,1380.00
2019-05-13T04:26:56.928Z,1404.00
2019-05-13T04:27:56.902Z,1428.00
2019-05-13T04:29:17.866Z,1456.00
2019-05-13T04:29:56.852Z,1484.00
2019-05-13T04:30:56.823Z,1504.00
2019-05-13T04:31:56.800Z,1532.00
2019-05-13T04:32:56.770Z,1560.00
2019-05-13T04:33:56.748Z,1580.00
2019-05-13T04:35:17.730Z,1604.00
2019-05-13T04:35:56.698Z,1632.00
2019-05-13T04:36:56.711Z,1652.00
2019-05-13T04:37:56.658Z,1672.00
2019-05-13T04:38:56.623Z,1696.00
2019-05-13T04:39:56.872Z,1720.00
2019-05-13T04:41:17.580Z,1744.00
2019-05-13T04:41:56.551Z,1768.00
2019-05-13T04:42:56.528Z,1792.00
2019-05-13T04:43:56.494Z,1820.00
2019-05-13T04:44:56.473Z,1840.00
2019-05-13T04:45:56.449Z,1868.00
2019-05-13T04:47:17.454Z,1884.00
2019-05-13T04:47:56.413Z,1908.00
2019-05-13T04:48:56.380Z,1928.00
2019-05-13T04:49:56.358Z,1952.00
2019-05-13T04:50:56.323Z,1968.00
2019-05-13T04:51:56.303Z,1988.00
2019-05-13T04:53:17.278Z,2008.00
2019-05-13T04:53:57.457Z,2024.00
2019-05-13T04:54:56.254Z,2040.00
2019-05-13T04:55:56.203Z,2056.00
2019-05-13T04:56:56.214Z,2076.00
2019-05-13T04:57:56.158Z,2092.00
2019-05-13T04:59:17.129Z,2112.00
2019-05-13T04:59:56.104Z,2132.00
2019-05-13T05:01:02.317Z,2148.00
2019-05-13T05:01:59.220Z,2164.00
2019-05-13T05:02:56.041Z,2184.00
2019-05-13T05:03:56.011Z,2204.00
2019-05-13T05:05:17.002Z,2224.00
2019-05-13T05:05:55.987Z,2240.00
2019-05-13T05:06:55.944Z,2256.00
2019-05-13T05:07:55.911Z,2276.00
2019-05-13T05:08:55.909Z,2296.00
2019-05-13T05:10:16.720Z,2312.00
2019-05-13T05:11:16.846Z,2332.00
2019-05-13T05:11:55.819Z,2348.00
2019-05-13T05:12:55.793Z,2372.00
2019-05-13T05:13:56.730Z,2388.00
2019-05-13T05:14:55.757Z,2400.00
2019-05-13T05:15:55.719Z,2416.00
2019-05-13T05:17:16.700Z,2432.00
2019-05-13T05:17:55.674Z,2480.00
2019-05-13T05:18:55.661Z,2572.00
2019-05-13T05:19:55.629Z,2824.00
2019-05-13T05:20:55.600Z,4476.00
2019-05-13T05:21:55.708Z,5228.00
2019-05-13T05:23:16.557Z,3700.00
2019-05-13T05:23:55.526Z,2600.00
2019-05-13T05:24:55.520Z,2568.00
2019-05-13T05:25:55.477Z,2584.00
2019-05-13T05:26:55.462Z,2592.00
2019-05-13T05:27:58.238Z,2608.00
2019-05-13T05:29:16.427Z,2624.00
2019-05-13T05:29:55.383Z,2640.00
2019-05-13T05:30:55.364Z,2652.00
2019-05-13T05:31:55.342Z,2668.00
2019-05-13T05:32:55.386Z,2684.00
2019-05-13T05:33:55.288Z,2696.00
2019-05-13T05:35:16.271Z,2708.00
2019-05-13T05:35:55.247Z,2724.00
2019-05-13T05:36:55.220Z,2736.00
2019-05-13T05:37:55.198Z,2748.00
2019-05-13T05:38:55.182Z,2768.00
2019-05-13T05:39:55.143Z,2780.00
2019-05-13T05:41:16.125Z,2796.00
2019-05-13T05:41:55.105Z,2852.00
2019-05-13T05:42:55.073Z,2920.00
2019-05-13T05:43:55.058Z,3040.00
2019-05-13T05:44:55.035Z,3360.00
2019-05-13T05:45:55.009Z,3944.00
2019-05-13T05:47:15.989Z,5268.00
2019-05-13T05:47:54.965Z,5376.00
2019-05-13T05:48:54.942Z,4968.00
2019-05-13T05:49:54.929Z,5644.00
2019-05-13T05:50:54.888Z,10816.00
2019-05-13T05:51:54.882Z,16736.00
2019-05-13T05:53:15.844Z,16960.00
2019-05-13T05:53:54.827Z,5072.00
2019-05-13T05:54:54.796Z,4300.00
2019-05-13T05:55:54.954Z,3332.00
2019-05-13T05:56:54.755Z,3616.00
2019-05-13T05:57:54.735Z,4584.00
2019-05-13T05:59:15.709Z,4628.00
2019-05-13T05:59:54.681Z,5364.00
2019-05-13T06:00:54.659Z,6064.00
2019-05-13T06:01:54.648Z,7496.00
2019-05-13T06:02:54.614Z,11236.00
2019-05-13T06:03:54.597Z,11248.00
2019-05-13T06:05:15.574Z,11528.00
2019-05-13T06:05:54.548Z,13672.00
2019-05-13T06:06:54.535Z,13076.00
2019-05-13T06:07:54.508Z,6380.00
2019-05-13T06:08:54.477Z,4336.00
2019-05-13T06:09:54.455Z,4192.00
2019-05-13T06:11:15.436Z,5020.00
2019-05-13T06:11:54.442Z,11488.00
2019-05-13T06:12:54.386Z,14200.00
2019-05-13T06:13:54.643Z,9164.00
2019-05-13T06:14:54.347Z,5044.00
2019-05-13T06:15:54.316Z,3352.00
2019-05-13T06:17:15.305Z,3332.00
2019-05-13T06:17:54.283Z,3376.00
2019-05-13T06:18:54.285Z,3400.00
2019-05-13T06:19:54.229Z,3436.00
2019-05-13T06:20:54.207Z,3516.00
2019-05-13T06:21:54.186Z,3544.00
2019-05-13T06:23:15.172Z,3592.00
2019-05-13T06:23:54.143Z,3760.00
2019-05-13T06:24:54.128Z,3832.00
2019-05-13T06:25:54.103Z,3772.00
2019-05-13T06:26:54.080Z,3728.00
2019-05-13T06:27:54.058Z,3780.00
2019-05-13T06:29:15.053Z,3756.00
2019-05-13T06:29:54.031Z,3796.00
2019-05-13T06:30:53.995Z,3828.00
2019-05-13T06:31:53.968Z,3828.00
2019-05-13T06:32:53.950Z,3856.00
2019-05-13T06:33:53.929Z,3924.00
2019-05-13T06:35:14.903Z,3960.00
2019-05-13T06:35:53.878Z,4000.00
2019-05-13T06:36:53.859Z,4048.00
2019-05-13T06:37:53.858Z,4040.00
2019-05-13T06:38:53.817Z,4020.00
2019-05-13T06:39:53.814Z,4028.00
2019-05-13T06:41:15.021Z,8172.00
2019-05-13T06:41:53.752Z,9988.00
2019-05-13T06:42:53.730Z,6160.00
2019-05-13T06:43:53.710Z,5848.00
2019-05-13T06:44:53.684Z,5816.00
2019-05-13T06:45:53.662Z,5816.00
2019-05-13T06:47:14.647Z,5560.00
2019-05-13T06:47:53.646Z,5636.00
2019-05-13T06:48:53.601Z,6536.00
2019-05-13T06:49:53.576Z,6556.00
2019-05-13T06:50:53.556Z,6164.00
2019-05-13T06:51:53.544Z,5640.00
2019-05-13T06:53:14.514Z,5548.00
2019-05-13T06:53:53.495Z,5884.00
2019-05-13T06:54:53.492Z,6132.00
2019-05-13T06:55:53.454Z,5952.00
2019-05-13T06:56:53.432Z,6112.00
2019-05-13T06:57:53.412Z,5928.00
2019-05-13T06:59:14.389Z,5780.00
2019-05-13T06:59:53.367Z,5592.00
2019-05-13T07:00:57.673Z,5460.00
2019-05-13T07:01:53.326Z,5276.00
2019-05-13T07:02:53.319Z,5020.00
2019-05-13T07:03:53.284Z,4944.00
2019-05-13T07:05:14.264Z,5012.00
2019-05-13T07:05:53.247Z,5204.00
2019-05-13T07:07:08.862Z,5248.00
2019-05-13T07:07:53.217Z,5180.00
2019-05-13T07:08:53.191Z,5104.00
2019-05-13T07:09:53.166Z,4768.00
2019-05-13T07:11:21.036Z,4212.00
2019-05-13T07:11:56.657Z,4224.00
2019-05-13T07:12:53.110Z,4148.00
2019-05-13T07:13:53.086Z,4192.00
2019-05-13T07:14:53.101Z,4224.00
2019-05-13T07:15:53.069Z,4288.00
2019-05-13T07:17:14.126Z,4484.00
2019-05-13T07:17:53.013Z,4884.00
2019-05-13T07:18:52.991Z,5212.00
2019-05-13T07:19:52.965Z,5480.00
2019-05-13T07:20:53.201Z,5496.00
2019-05-13T07:21:52.927Z,5640.00
2019-05-13T07:23:13.940Z,5700.00
2019-05-13T07:23:54.930Z,5616.00
2019-05-13T07:24:52.875Z,5532.00
2019-05-13T07:25:52.867Z,5440.00
2019-05-13T07:26:52.831Z,5460.00
2019-05-13T07:27:52.826Z,5512.00
2019-05-13T07:29:14.320Z,5568.00
2019-05-13T07:29:55.485Z,5428.00
2019-05-13T07:30:52.777Z,5320.00
2019-05-13T07:31:52.743Z,5432.00
2019-05-13T07:32:52.722Z,5112.00
2019-05-13T07:33:52.700Z,5884.00
2019-05-13T07:35:14.691Z,5888.00
2019-05-13T07:35:58.283Z,5792.00
2019-05-13T07:36:52.646Z,5416.00
2019-05-13T07:37:52.636Z,5660.00
2019-05-13T07:38:52.614Z,5816.00
2019-05-13T07:39:53.139Z,5640.00
2019-05-13T07:41:13.584Z,5576.00
2019-05-13T07:41:52.563Z,5636.00
2019-05-13T07:42:52.546Z,5372.00
2019-05-13T07:43:52.522Z,5160.00
2019-05-13T07:44:52.511Z,5140.00
2019-05-13T07:45:52.495Z,5272.00
2019-05-13T07:47:15.836Z,5484.00
2019-05-13T07:47:52.454Z,5724.00
2019-05-13T07:48:52.441Z,5808.00
2019-05-13T07:49:52.457Z,5828.00
2019-05-13T07:50:59.912Z,5816.00
2019-05-13T07:51:52.385Z,5664.00
2019-05-13T07:53:18.653Z,5308.00
2019-05-13T07:53:52.355Z,5252.00
2019-05-13T07:54:52.339Z,5236.00
2019-05-13T07:55:52.582Z,5460.00
2019-05-13T07:56:52.521Z,5328.00
2019-05-13T07:57:52.279Z,5276.00
2019-05-13T07:59:13.284Z,5428.00
2019-05-13T07:59:52.528Z,5584.00
2019-05-13T08:00:52.404Z,5508.00
2019-05-13T08:01:52.364Z,5708.00
2019-05-13T08:02:52.416Z,5692.00
2019-05-13T08:03:52.190Z,5524.00
2019-05-13T08:05:13.174Z,5424.00
2019-05-13T08:05:52.149Z,5392.00
2019-05-13T08:06:52.530Z,5012.00
2019-05-13T08:07:52.123Z,5608.00
2019-05-13T08:08:52.427Z,5496.00
2019-05-13T08:09:55.660Z,5316.00
2019-05-13T08:11:13.079Z,5248.00
2019-05-13T08:12:04.731Z,5244.00
2019-05-13T08:12:52.036Z,5284.00
2019-05-13T08:13:52.024Z,5332.00
2019-05-13T08:14:52.318Z,5400.00
2019-05-13T08:15:54.543Z,5528.00
2019-05-13T08:17:13.064Z,5652.00
2019-05-13T08:17:52.578Z,5584.00
2019-05-13T08:18:52.421Z,6548.00
2019-05-13T08:19:52.216Z,6824.00
2019-05-13T08:20:52.550Z,6968.00
2019-05-13T08:21:51.904Z,7060.00
2019-05-13T08:23:12.908Z,7036.00
2019-05-13T08:23:52.655Z,7032.00
2019-05-13T08:24:54.123Z,7064.00
2019-05-13T08:25:51.846Z,7072.00
2019-05-13T08:26:53.161Z,7084.00
2019-05-13T08:27:51.832Z,7232.00
2019-05-13T08:29:12.810Z,7668.00
2019-05-13T08:29:52.164Z,7536.00
2019-05-13T08:30:51.986Z,7432.00
2019-05-13T08:31:51.965Z,7476.00
2019-05-13T08:32:52.345Z,7544.00
2019-05-13T08:33:52.029Z,7708.00
2019-05-13T08:35:12.756Z,7920.00
2019-05-13T08:35:54.019Z,8180.00
2019-05-13T08:36:51.717Z,8512.00
2019-05-13T08:37:52.145Z,8836.00
2019-05-13T08:38:52.023Z,9152.00
2019-05-13T08:39:52.303Z,9456.00
2019-05-13T08:41:18.978Z,9772.00
2019-05-13T08:41:51.685Z,10340.00
2019-05-13T08:42:52.113Z,11012.00
2019-05-13T08:43:52.376Z,11568.00
2019-05-13T08:44:52.438Z,11764.00
2019-05-13T08:45:55.108Z,11200.00
2019-05-13T08:47:12.569Z,12300.00
2019-05-13T08:47:51.551Z,12344.00
2019-05-13T08:48:51.912Z,12428.00
2019-05-13T08:49:52.172Z,12680.00
2019-05-13T08:50:52.191Z,12824.00
2019-05-13T08:51:52.728Z,13100.00
2019-05-13T08:53:12.514Z,13532.00
2019-05-13T08:53:51.729Z,13972.00
2019-05-13T08:54:52.440Z,14444.00
2019-05-13T08:55:51.838Z,14960.00
2019-05-13T08:56:52.025Z,15544.00
2019-05-13T08:57:54.919Z,16396.00
2019-05-13T08:59:12.415Z,17760.00
2019-05-13T08:59:51.720Z,19584.00
2019-05-13T09:00:52.953Z,33728.00
2019-05-13T09:01:52.086Z,63392.00
2019-05-13T09:02:52.206Z,80128.00
2019-05-13T09:03:52.131Z,84320.00
2019-05-13T09:05:12.321Z,96384.00
2019-05-13T09:05:52.207Z,102752.00
2019-05-13T09:06:52.378Z,97728.00
2019-05-13T09:07:51.806Z,80480.00
2019-05-13T09:08:53.740Z,71040.00
2019-05-13T09:09:51.359Z,79200.00
2019-05-13T09:11:12.247Z,91136.00
2019-05-13T09:11:51.671Z,95264.00
2019-05-13T09:12:52.209Z,100704.00
2019-05-13T09:13:51.677Z,107328.00
2019-05-13T09:14:52.362Z,107840.00
2019-05-13T09:15:51.765Z,100416.00
2019-05-13T09:17:12.270Z,94496.00
2019-05-13T09:17:51.691Z,100192.00
2019-05-13T09:18:52.039Z,107328.00
2019-05-13T09:19:51.971Z,108640.00
2019-05-13T09:20:52.132Z,108928.00
2019-05-13T09:21:52.577Z,106432.00
2019-05-13T09:23:12.086Z,98944.00
2019-05-13T09:23:51.601Z,85856.00
2019-05-13T09:24:53.021Z,75264.00
2019-05-13T09:25:52.111Z,78400.00
2019-05-13T09:26:52.722Z,89632.00
2019-05-13T09:27:51.409Z,99648.00
2019-05-13T09:29:12.121Z,105888.00
2019-05-13T09:29:51.840Z,109184.00
2019-05-13T09:30:53.027Z,111872.00
2019-05-13T09:31:52.008Z,114240.00
2019-05-13T09:32:51.446Z,115552.00
2019-05-13T09:33:52.102Z,111840.00
2019-05-13T09:35:12.181Z,111360.00
2019-05-13T09:35:53.374Z,106720.00
2019-05-13T09:36:51.938Z,108096.00
2019-05-13T09:37:51.619Z,108928.00
2019-05-13T09:38:52.581Z,110752.00
2019-05-13T09:39:51.649Z,110144.00
2019-05-13T09:41:12.453Z,112768.00
2019-05-13T09:41:52.059Z,108768.00
2019-05-13T09:43:51.487Z,98400.00
2019-05-13T09:44:52.493Z,104256.00
2019-05-13T09:45:52.305Z,108576.00
2019-05-13T09:47:12.400Z,102176.00
2019-05-13T09:47:52.531Z,98112.00
2019-05-13T09:48:51.647Z,98688.00
2019-05-13T09:49:50.721Z,106048.00
2019-05-13T09:50:51.663Z,113056.00
2019-05-13T09:51:52.261Z,114208.00
2019-05-13T09:53:11.762Z,111296.00
2019-05-13T09:53:51.995Z,105248.00
2019-05-13T09:54:52.326Z,104256.00
2019-05-13T09:55:52.119Z,106080.00
2019-05-13T09:56:51.877Z,107008.00
2019-05-13T09:57:52.512Z,107424.00
2019-05-13T09:59:11.914Z,106336.00
2019-05-13T09:59:52.367Z,111648.00
2019-05-13T10:01:51.894Z,118624.00
2019-05-13T10:02:51.631Z,114016.00
2019-05-13T10:03:54.934Z,120448.00
2019-05-13T10:05:11.795Z,120064.00
2019-05-13T10:05:51.852Z,116512.00
2019-05-13T10:06:50.516Z,112800.00
2019-05-13T10:07:50.508Z,109216.00
2019-05-13T10:08:52.714Z,111584.00
2019-05-13T10:09:52.092Z,113472.00
2019-05-13T10:11:12.379Z,119520.00
2019-05-13T10:11:51.950Z,120224.00
2019-05-13T10:13:07.368Z,119488.00
2019-05-13T10:13:51.561Z,116224.00
2019-05-13T10:14:50.423Z,113568.00
2019-05-13T10:15:50.416Z,112896.00
2019-05-13T10:17:13.174Z,112704.00
2019-05-13T10:17:52.643Z,115264.00
2019-05-13T10:18:52.469Z,118144.00
2019-05-13T10:19:52.082Z,119328.00
2019-05-13T10:20:52.403Z,114176.00
2019-05-13T10:21:52.448Z,117536.00
2019-05-13T10:23:12.592Z,113632.00
2019-05-13T10:23:50.333Z,108288.00
2019-05-13T10:24:51.389Z,104512.00
2019-05-13T10:25:52.147Z,103072.00
2019-05-13T10:26:51.473Z,106496.00
2019-05-13T10:27:50.295Z,121280.00
2019-05-13T10:29:11.983Z,122240.00
2019-05-13T10:29:51.711Z,122624.00
2019-05-13T10:30:53.043Z,120832.00
2019-05-13T10:31:51.328Z,118336.00
2019-05-13T10:32:52.618Z,117184.00
2019-05-13T10:33:51.294Z,115328.00
2019-05-13T10:35:11.244Z,115968.00
2019-05-13T10:35:52.502Z,113568.00
2019-05-13T10:36:51.418Z,114400.00
2019-05-13T10:37:52.264Z,117920.00
2019-05-13T10:38:52.151Z,119136.00
2019-05-13T10:39:51.722Z,114528.00
2019-05-13T10:41:11.931Z,109600.00
2019-05-13T10:41:52.299Z,108608.00
2019-05-13T10:42:52.424Z,111392.00
2019-05-13T10:43:52.022Z,119264.00
2019-05-13T10:44:52.359Z,120928.00
2019-05-13T10:45:52.232Z,122656.00
2019-05-13T10:47:12.093Z,121312.00
2019-05-13T10:47:51.901Z,122016.00
2019-05-13T10:48:52.691Z,125664.00
2019-05-13T10:49:52.416Z,126464.00
2019-05-13T10:50:52.934Z,127360.00
2019-05-13T10:51:52.587Z,127392.00
2019-05-13T10:53:12.260Z,126016.00
2019-05-13T10:53:52.474Z,127104.00
2019-05-13T10:54:52.350Z,127264.00
2019-05-13T10:55:52.159Z,123616.00
2019-05-13T10:56:53.129Z,120992.00
2019-05-13T10:57:51.346Z,119584.00
2019-05-13T10:59:12.631Z,119936.00
2019-05-13T10:59:51.964Z,121888.00
2019-05-13T11:00:51.662Z,121536.00
2019-05-13T11:01:50.081Z,124096.00
2019-05-13T11:02:50.063Z,131840.00
2019-05-13T11:03:52.427Z,138656.00
2019-05-13T11:05:12.315Z,135168.00
2019-05-13T11:05:52.488Z,128224.00
2019-05-13T11:06:52.488Z,125952.00
2019-05-13T11:07:51.743Z,126336.00
2019-05-13T11:08:52.803Z,125888.00
2019-05-13T11:09:52.661Z,122336.00
2019-05-13T11:11:13.058Z,118816.00
2019-05-13T11:11:52.845Z,122048.00
2019-05-13T11:12:52.065Z,126208.00
2019-05-13T11:13:58.155Z,128864.00
2019-05-13T11:14:51.481Z,125472.00
2019-05-13T11:15:53.227Z,119936.00
2019-05-13T11:17:13.174Z,123520.00
2019-05-13T11:17:51.933Z,129120.00
2019-05-13T11:18:51.889Z,131072.00
2019-05-13T11:19:49.994Z,129088.00
2019-05-13T11:20:49.986Z,126848.00
2019-05-13T11:21:50.923Z,122400.00
2019-05-13T11:23:12.481Z,121952.00
2019-05-13T11:23:51.822Z,116640.00
2019-05-13T11:24:51.809Z,128352.00
2019-05-13T11:25:52.237Z,125792.00
2019-05-13T11:26:52.257Z,125344.00
2019-05-13T11:27:52.315Z,126848.00
2019-05-13T11:29:12.179Z,131648.00
2019-05-13T11:29:52.304Z,135008.00
2019-05-13T11:30:52.096Z,132704.00
2019-05-13T11:31:52.410Z,127136.00
2019-05-13T11:32:51.607Z,120064.00
2019-05-13T11:33:52.011Z,115712.00
2019-05-13T11:35:12.665Z,110688.00
2019-05-13T11:35:52.382Z,112928.00
2019-05-13T11:36:53.105Z,118816.00
2019-05-13T11:37:52.155Z,121024.00
2019-05-13T11:38:53.097Z,120704.00
2019-05-13T11:39:51.694Z,122016.00
2019-05-13T11:41:11.850Z,124224.00
2019-05-13T11:41:49.931Z,122560.00
2019-05-13T11:42:52.178Z,115968.00
2019-05-13T11:44:09.232Z,114016.00
2019-05-13T11:44:52.741Z,119808.00
2019-05-13T11:45:50.872Z,119424.00
2019-05-13T11:47:12.742Z,117152.00
2019-05-13T11:47:51.982Z,114048.00
2019-05-13T11:48:51.933Z,116992.00
2019-05-13T11:49:52.214Z,121280.00
2019-05-13T11:50:53.222Z,123264.00
2019-05-13T11:51:51.890Z,120704.00
2019-05-13T11:53:31.646Z,116480.00
2019-05-13T11:53:50.569Z,118464.00
2019-05-13T11:54:53.175Z,119136.00
2019-05-13T11:55:52.315Z,114272.00
2019-05-13T11:57:00.968Z,103872.00
2019-05-13T11:57:52.452Z,103936.00
2019-05-13T11:59:14.080Z,106496.00
2019-05-13T11:59:52.672Z,93440.00
2019-05-13T12:00:53.101Z,103264.00
2019-05-13T12:01:53.503Z,107904.00
2019-05-13T12:02:54.461Z,106784.00
2019-05-13T12:03:52.812Z,100736.00
2019-05-13T12:05:10.900Z,112288.00
2019-05-13T12:05:53.432Z,95360.00
2019-05-13T12:06:54.288Z,61760.00
2019-05-13T12:07:53.323Z,44768.00
2019-05-13T12:08:52.077Z,41152.00
2019-05-13T12:09:51.801Z,39392.00
2019-05-13T12:11:13.981Z,38656.00
2019-05-13T12:11:49.884Z,38400.00
2019-05-13T12:12:49.880Z,38496.00
2019-05-13T12:13:52.871Z,38528.00
2019-05-13T12:15:21.077Z,38688.00
2019-05-13T12:15:51.058Z,38784.00